createdAt,value
2022-08-23T00:00:52.828Z,48.34
2022-08-23T00:01:52.757Z,43.51
2022-08-23T00:02:52.772Z,39.16
2022-08-23T00:03:52.744Z,38.99
2022-08-23T00:05:03.678Z,40.77
2022-08-23T00:05:53.727Z,44.96
2022-08-23T00:06:52.693Z,42.22
2022-08-23T00:07:52.710Z,41.73
2022-08-23T00:08:52.674Z,42.22
2022-08-23T00:09:52.691Z,41.09
2022-08-23T00:10:52.658Z,40.44
2022-08-23T00:11:52.654Z,43.99
2022-08-23T00:12:52.639Z,44.31
2022-08-23T00:13:52.653Z,41.25
2022-08-23T00:14:52.613Z,40.12
2022-08-23T00:15:52.614Z,40.28
2022-08-23T00:16:52.603Z,40.44
2022-08-23T00:17:52.588Z,48.98
2022-08-23T00:18:52.604Z,47.53
2022-08-23T00:19:52.559Z,47.05
2022-08-23T00:20:52.561Z,43.34
2022-08-23T00:21:52.594Z,43.83
2022-08-23T00:22:52.553Z,40.28
2022-08-23T00:23:52.532Z,39.64
2022-08-23T00:24:52.514Z,39.96
2022-08-23T00:25:52.549Z,39.96
2022-08-23T00:26:52.501Z,41.73
2022-08-23T00:27:52.526Z,44.47
2022-08-23T00:28:52.537Z,48.34
2022-08-23T00:29:52.475Z,50.60
2022-08-23T00:30:52.446Z,44.79
2022-08-23T00:31:53.448Z,45.60
2022-08-23T00:32:52.475Z,48.34
2022-08-23T00:33:53.431Z,46.89
2022-08-23T00:34:52.609Z,48.34
2022-08-23T00:35:52.413Z,43.99
2022-08-23T00:36:52.415Z,44.47
2022-08-23T00:38:32.350Z,43.51
2022-08-23T00:38:53.414Z,45.28
2022-08-23T00:39:52.413Z,46.25
2022-08-23T00:40:52.368Z,43.18
2022-08-23T00:41:52.349Z,41.57
2022-08-23T00:42:52.339Z,41.09
2022-08-23T00:43:52.351Z,44.96
2022-08-23T00:44:52.317Z,40.93
2022-08-23T00:45:52.338Z,40.93
2022-08-23T00:46:52.290Z,46.08
2022-08-23T00:47:52.316Z,43.51
2022-08-23T00:48:52.319Z,43.67
2022-08-23T00:49:52.274Z,42.06
2022-08-23T00:50:52.288Z,43.51
2022-08-23T00:51:53.418Z,41.09
2022-08-23T00:52:52.234Z,41.25
2022-08-23T00:53:52.248Z,42.70
2022-08-23T00:54:52.243Z,47.05
2022-08-23T00:55:52.230Z,41.57
2022-08-23T00:56:52.223Z,41.57
2022-08-23T00:57:52.211Z,39.64
2022-08-23T00:58:52.175Z,42.70
2022-08-23T00:59:52.166Z,47.70
2022-08-23T01:00:52.156Z,43.67
2022-08-23T01:01:52.203Z,42.86
2022-08-23T01:02:52.163Z,47.70
2022-08-23T01:03:59.214Z,47.53
2022-08-23T01:04:53.120Z,42.38
2022-08-23T01:06:24.000Z,43.18
2022-08-23T01:06:52.108Z,48.50
2022-08-23T01:07:52.078Z,50.43
2022-08-23T01:08:52.177Z,47.70
2022-08-23T01:09:52.062Z,44.47
2022-08-23T01:10:52.059Z,49.79
2022-08-23T01:11:52.053Z,48.50
2022-08-23T01:12:52.048Z,43.18
2022-08-23T01:13:52.041Z,45.76
2022-08-23T01:14:52.039Z,48.02
2022-08-23T01:15:51.995Z,46.41
2022-08-23T01:16:51.997Z,45.44
2022-08-23T01:17:51.992Z,47.05
2022-08-23T01:18:51.973Z,48.18
2022-08-23T01:19:51.979Z,46.41
2022-08-23T01:20:51.957Z,48.34
2022-08-23T01:21:51.929Z,45.44
2022-08-23T01:22:51.928Z,46.57
2022-08-23T01:23:51.927Z,44.31
2022-08-23T01:25:08.266Z,44.15
2022-08-23T01:25:51.922Z,48.18
2022-08-23T01:26:51.886Z,45.12
2022-08-23T01:27:51.885Z,44.15
2022-08-23T01:28:51.874Z,43.02
2022-08-23T01:29:51.858Z,44.15
2022-08-23T01:30:51.873Z,45.44
2022-08-23T01:31:51.848Z,47.05
2022-08-23T01:32:51.830Z,44.63
2022-08-23T01:33:51.816Z,40.12
2022-08-23T01:34:51.913Z,45.92
2022-08-23T01:35:51.821Z,46.57
2022-08-23T01:36:51.786Z,42.38
2022-08-23T01:37:51.776Z,45.76
2022-08-23T01:38:51.767Z,43.51
2022-08-23T01:39:51.880Z,40.12
2022-08-23T01:40:51.774Z,40.77
2022-08-23T01:41:51.743Z,41.41
2022-08-23T01:42:51.730Z,49.15
2022-08-23T01:43:51.736Z,42.38
2022-08-23T01:44:51.730Z,43.18
2022-08-23T01:45:51.703Z,39.96
2022-08-23T01:46:51.690Z,38.51
2022-08-23T01:47:52.690Z,38.83
2022-08-23T01:48:51.714Z,39.64
2022-08-23T01:49:51.679Z,40.93
2022-08-23T01:50:51.690Z,39.48
2022-08-23T01:51:51.636Z,45.28
2022-08-23T01:52:51.629Z,49.79
2022-08-23T01:53:51.613Z,44.96
2022-08-23T01:54:51.622Z,41.09
2022-08-23T01:55:51.613Z,41.41
2022-08-23T01:56:51.586Z,44.47
2022-08-23T01:57:51.575Z,42.70
2022-08-23T01:58:51.589Z,43.51
2022-08-23T01:59:51.574Z,46.57
2022-08-23T02:00:51.551Z,45.60
2022-08-23T02:01:51.597Z,49.79
2022-08-23T02:02:51.528Z,48.18
2022-08-23T02:03:57.232Z,41.41
2022-08-23T02:04:52.511Z,41.57
2022-08-23T02:06:51.497Z,41.89
2022-08-23T02:07:51.500Z,43.18
2022-08-23T02:08:52.408Z,46.08
2022-08-23T02:09:51.451Z,44.31
2022-08-23T02:10:52.447Z,43.02
2022-08-23T02:11:51.455Z,44.63
2022-08-23T02:12:51.439Z,44.15
2022-08-23T02:13:51.414Z,48.82
2022-08-23T02:14:51.409Z,51.72
2022-08-23T02:15:51.405Z,49.15
2022-08-23T02:16:58.108Z,41.89
2022-08-23T02:17:52.369Z,44.31
2022-08-23T02:18:51.356Z,41.09
2022-08-23T02:19:51.352Z,44.31
2022-08-23T02:20:51.343Z,45.92
2022-08-23T02:21:51.350Z,44.31
2022-08-23T02:22:51.320Z,45.60
2022-08-23T02:23:51.311Z,43.51
2022-08-23T02:24:51.299Z,42.70
2022-08-23T02:25:51.297Z,42.38
2022-08-23T02:26:56.448Z,41.57
2022-08-23T02:27:52.277Z,41.41
2022-08-23T02:28:51.258Z,43.34
2022-08-23T02:29:52.876Z,44.96
2022-08-23T02:30:51.240Z,49.79
2022-08-23T02:31:51.245Z,49.47
2022-08-23T02:32:51.248Z,51.24
2022-08-23T02:33:51.211Z,44.15
2022-08-23T02:35:01.752Z,41.41
2022-08-23T02:35:52.198Z,40.12
2022-08-23T02:36:51.194Z,40.61
2022-08-23T02:37:51.190Z,40.28
2022-08-23T02:38:51.163Z,45.12
2022-08-23T02:39:51.209Z,41.89
2022-08-23T02:40:52.977Z,43.51
2022-08-23T02:41:51.190Z,47.37
2022-08-23T02:42:51.129Z,45.76
2022-08-23T02:43:51.108Z,46.25
2022-08-23T02:44:51.104Z,48.82
2022-08-23T02:45:51.101Z,46.57
2022-08-23T02:46:51.110Z,49.15
2022-08-23T02:47:51.083Z,41.57
2022-08-23T02:48:51.063Z,42.38
2022-08-23T02:49:51.070Z,46.08
2022-08-23T02:50:51.046Z,46.57
2022-08-23T02:51:51.025Z,44.79
2022-08-23T02:52:51.031Z,46.41
2022-08-23T02:53:51.021Z,46.25
2022-08-23T02:54:51.028Z,47.70
2022-08-23T02:55:51.018Z,49.79
2022-08-23T02:56:50.980Z,48.66
2022-08-23T02:57:50.989Z,47.70
2022-08-23T02:58:54.600Z,49.15
2022-08-23T02:59:50.969Z,50.11
2022-08-23T03:00:50.945Z,47.53
2022-08-23T03:01:50.941Z,50.11
2022-08-23T03:02:50.926Z,49.15
2022-08-23T03:03:50.929Z,51.40
2022-08-23T03:04:50.912Z,49.47
2022-08-23T03:05:50.916Z,48.50
2022-08-23T03:06:50.893Z,49.95
2022-08-23T03:07:50.904Z,48.18
2022-08-23T03:08:50.863Z,48.34
2022-08-23T03:09:50.850Z,46.57
2022-08-23T03:10:50.847Z,49.47
2022-08-23T03:11:50.833Z,56.24
2022-08-23T03:12:50.837Z,46.08
2022-08-23T03:13:50.841Z,49.15
2022-08-23T03:14:50.802Z,49.31
2022-08-23T03:15:50.796Z,48.34
2022-08-23T03:16:50.782Z,48.82
2022-08-23T03:17:50.785Z,50.60
2022-08-23T03:18:50.787Z,46.41
2022-08-23T03:19:50.752Z,45.28
2022-08-23T03:20:50.743Z,48.66
2022-08-23T03:21:50.738Z,52.85
2022-08-23T03:22:54.725Z,52.53
2022-08-23T03:23:50.765Z,50.27
2022-08-23T03:24:50.713Z,50.76
2022-08-23T03:25:50.688Z,52.37
2022-08-23T03:26:50.703Z,54.62
2022-08-23T03:27:50.671Z,51.56
2022-08-23T03:28:50.666Z,51.40
2022-08-23T03:29:50.653Z,51.24
2022-08-23T03:30:50.657Z,50.43
2022-08-23T03:31:50.666Z,48.02
2022-08-23T03:32:50.630Z,55.59
2022-08-23T03:33:50.616Z,51.08
2022-08-23T03:34:50.606Z,48.82
2022-08-23T03:35:50.605Z,52.85
2022-08-23T03:36:50.616Z,53.98
2022-08-23T03:37:55.037Z,50.92
2022-08-23T03:38:51.587Z,52.85
2022-08-23T03:39:50.592Z,50.27
2022-08-23T03:40:51.547Z,53.98
2022-08-23T03:41:50.533Z,53.98
2022-08-23T03:42:50.525Z,53.33
2022-08-23T03:43:50.536Z,52.53
2022-08-23T03:44:50.500Z,53.33
2022-08-23T03:45:51.510Z,52.05
2022-08-23T03:46:50.515Z,52.21
2022-08-23T03:47:50.475Z,55.11
2022-08-23T03:48:50.478Z,53.98
2022-08-23T03:49:50.461Z,54.30
2022-08-23T03:50:50.467Z,51.88
2022-08-23T03:51:50.430Z,54.95
2022-08-23T03:52:50.423Z,48.34
2022-08-23T03:53:50.409Z,51.40
2022-08-23T03:54:50.399Z,52.69
2022-08-23T03:55:50.411Z,53.50
2022-08-23T03:56:50.382Z,50.27
2022-08-23T03:57:50.381Z,47.21
2022-08-23T03:58:50.367Z,50.60
2022-08-23T03:59:50.386Z,52.53
2022-08-23T04:00:50.370Z,50.11
2022-08-23T04:01:50.406Z,51.56
2022-08-23T04:02:50.338Z,52.05
2022-08-23T04:03:50.322Z,49.79
2022-08-23T04:04:50.347Z,52.37
2022-08-23T04:05:50.298Z,52.05
2022-08-23T04:06:50.293Z,49.15
2022-08-23T04:07:50.272Z,50.11
2022-08-23T04:08:50.271Z,52.53
2022-08-23T04:09:54.832Z,50.27
2022-08-23T04:10:52.262Z,51.72
2022-08-23T04:11:50.232Z,53.50
2022-08-23T04:12:50.234Z,50.27
2022-08-23T04:13:50.221Z,52.85
2022-08-23T04:14:50.228Z,53.33
2022-08-23T04:15:50.192Z,53.17
2022-08-23T04:16:50.186Z,55.43
2022-08-23T04:17:50.180Z,53.66
2022-08-23T04:18:50.176Z,52.69
2022-08-23T04:19:50.170Z,55.43
2022-08-23T04:20:50.151Z,52.85
2022-08-23T04:21:50.141Z,51.40
2022-08-23T04:22:50.122Z,51.56
2022-08-23T04:23:50.116Z,56.24
2022-08-23T04:24:50.129Z,51.56
2022-08-23T04:25:50.101Z,52.53
2022-08-23T04:26:50.100Z,52.69
2022-08-23T04:27:50.084Z,54.95
2022-08-23T04:28:50.071Z,55.27
2022-08-23T04:29:50.076Z,51.08
2022-08-23T04:30:50.052Z,52.85
2022-08-23T04:31:50.049Z,55.75
2022-08-23T04:32:50.046Z,53.98
2022-08-23T04:33:52.294Z,54.95
2022-08-23T04:34:51.385Z,54.46
2022-08-23T04:35:49.988Z,56.24
2022-08-23T04:36:51.917Z,53.98
2022-08-23T04:37:50.982Z,51.24
2022-08-23T04:38:49.967Z,53.82
2022-08-23T04:39:49.960Z,55.43
2022-08-23T04:40:49.961Z,52.53
2022-08-23T04:41:49.935Z,52.69
2022-08-23T04:42:49.926Z,53.98
2022-08-23T04:43:49.927Z,54.95
2022-08-23T04:44:49.924Z,56.07
2022-08-23T04:45:49.912Z,54.30
2022-08-23T04:46:49.901Z,51.40
2022-08-23T04:47:49.874Z,52.05
2022-08-23T04:48:49.862Z,50.27
2022-08-23T04:49:49.857Z,55.91
2022-08-23T04:50:49.855Z,53.82
2022-08-23T04:51:53.782Z,54.95
2022-08-23T04:52:49.820Z,54.30
2022-08-23T04:53:49.834Z,54.95
2022-08-23T04:54:49.809Z,53.82
2022-08-23T04:55:49.790Z,52.53
2022-08-23T04:56:50.995Z,53.17
2022-08-23T04:57:49.762Z,53.50
2022-08-23T04:58:49.785Z,53.17
2022-08-23T04:59:49.750Z,52.37
2022-08-23T05:00:51.571Z,51.72
2022-08-23T05:01:50.739Z,49.79
2022-08-23T05:02:49.728Z,52.53
2022-08-23T05:03:49.736Z,53.50
2022-08-23T05:04:49.702Z,52.05
2022-08-23T05:05:49.687Z,54.14
2022-08-23T05:06:49.694Z,53.50
2022-08-23T05:07:49.674Z,53.82
2022-08-23T05:08:49.655Z,52.85
2022-08-23T05:09:49.674Z,51.40
2022-08-23T05:10:49.639Z,51.72
2022-08-23T05:11:49.637Z,52.37
2022-08-23T05:12:49.620Z,54.95
2022-08-23T05:13:49.635Z,53.17
2022-08-23T05:14:49.607Z,52.21
2022-08-23T05:15:49.609Z,52.85
2022-08-23T05:16:49.581Z,50.60
2022-08-23T05:17:49.565Z,50.76
2022-08-23T05:18:49.578Z,51.56
2022-08-23T05:19:49.558Z,53.01
2022-08-23T05:20:49.538Z,53.66
2022-08-23T05:21:51.161Z,50.76
2022-08-23T05:22:49.532Z,54.62
2022-08-23T05:23:50.858Z,53.33
2022-08-23T05:24:49.517Z,53.50
2022-08-23T05:25:49.501Z,51.40
2022-08-23T05:26:49.478Z,52.53
2022-08-23T05:27:49.473Z,53.66
2022-08-23T05:28:49.470Z,52.69
2022-08-23T05:29:49.485Z,51.56
2022-08-23T05:30:55.204Z,51.40
2022-08-23T05:31:50.442Z,50.60
2022-08-23T05:32:49.437Z,50.76
2022-08-23T05:33:49.448Z,53.01
2022-08-23T05:34:49.408Z,51.72
2022-08-23T05:35:49.399Z,49.95
2022-08-23T05:36:55.587Z,51.08
2022-08-23T05:37:50.390Z,54.46
2022-08-23T05:38:49.379Z,53.66
2022-08-23T05:39:49.409Z,50.76
2022-08-23T05:40:49.360Z,53.33
2022-08-23T05:41:50.332Z,52.85
2022-08-23T05:42:49.327Z,53.50
2022-08-23T05:43:49.327Z,54.14
2022-08-23T05:44:49.327Z,53.98
2022-08-23T05:45:49.322Z,53.33
2022-08-23T05:46:49.305Z,53.33
2022-08-23T05:47:50.295Z,52.21
2022-08-23T05:48:49.261Z,50.76
2022-08-23T05:49:49.260Z,51.72
2022-08-23T05:50:49.288Z,53.01
2022-08-23T05:51:51.532Z,54.79
2022-08-23T05:52:51.202Z,52.37
2022-08-23T05:53:50.227Z,52.53
2022-08-23T05:54:49.212Z,52.53
2022-08-23T05:55:49.211Z,49.95
2022-08-23T05:56:49.216Z,49.63
2022-08-23T05:57:49.178Z,51.08
2022-08-23T05:58:49.172Z,53.66
2022-08-23T05:59:49.174Z,53.66
2022-08-23T06:00:49.211Z,49.31
2022-08-23T06:01:50.288Z,49.79
2022-08-23T06:02:49.147Z,51.56
2022-08-23T06:03:49.130Z,51.24
2022-08-23T06:04:49.163Z,50.60
2022-08-23T06:05:49.107Z,50.11
2022-08-23T06:06:49.125Z,50.11
2022-08-23T06:07:49.396Z,52.69
2022-08-23T06:08:49.082Z,52.69
2022-08-23T06:09:49.075Z,52.53
2022-08-23T06:10:49.060Z,51.24
2022-08-23T06:11:49.070Z,52.85
2022-08-23T06:12:49.043Z,53.98
2022-08-23T06:13:49.104Z,52.53
2022-08-23T06:14:49.024Z,52.21
2022-08-23T06:15:49.024Z,53.50
2022-08-23T06:16:51.574Z,54.95
2022-08-23T06:17:50.017Z,53.01
2022-08-23T06:18:48.985Z,52.05
2022-08-23T06:19:48.998Z,52.69
2022-08-23T06:20:49.018Z,52.53
2022-08-23T06:21:48.966Z,54.46
2022-08-23T06:22:48.945Z,52.21
2022-08-23T06:23:48.929Z,50.43
2022-08-23T06:24:48.947Z,49.31
2022-08-23T06:25:48.909Z,48.18
2022-08-23T06:26:48.920Z,50.60
2022-08-23T06:27:48.909Z,54.30
2022-08-23T06:28:51.149Z,53.82
2022-08-23T06:29:48.870Z,49.47
2022-08-23T06:30:48.917Z,51.40
2022-08-23T06:31:49.018Z,51.88
2022-08-23T06:32:48.922Z,54.30
2022-08-23T06:33:48.878Z,54.14
2022-08-23T06:34:48.846Z,53.33
2022-08-23T06:35:48.820Z,54.14
2022-08-23T06:36:48.821Z,51.24
2022-08-23T06:37:48.810Z,53.50
2022-08-23T06:38:48.789Z,53.01
2022-08-23T06:39:48.838Z,53.50
2022-08-23T06:40:48.760Z,50.27
2022-08-23T06:41:48.778Z,50.76
2022-08-23T06:42:48.744Z,51.72
2022-08-23T06:43:49.031Z,48.02
2022-08-23T06:44:49.731Z,49.95
2022-08-23T06:45:54.930Z,47.70
2022-08-23T06:46:49.753Z,52.05
2022-08-23T06:47:48.698Z,51.08
2022-08-23T06:48:48.682Z,50.11
2022-08-23T06:49:52.629Z,48.66
2022-08-23T06:50:48.679Z,50.92
2022-08-23T06:51:48.682Z,48.66
2022-08-23T06:52:48.644Z,49.63
2022-08-23T06:53:48.643Z,51.40
2022-08-23T06:54:48.654Z,50.27
2022-08-23T06:55:48.623Z,49.31
2022-08-23T06:56:48.609Z,47.05
2022-08-23T06:57:48.605Z,48.02
2022-08-23T06:58:48.600Z,50.76
2022-08-23T06:59:48.596Z,49.79
2022-08-23T07:00:48.675Z,48.66
2022-08-23T07:01:48.634Z,50.27
2022-08-23T07:02:53.974Z,48.18
2022-08-23T07:03:49.538Z,51.88
2022-08-23T07:04:48.519Z,48.02
2022-08-23T07:05:48.522Z,43.99
2022-08-23T07:06:48.549Z,45.44
2022-08-23T07:07:48.532Z,49.15
2022-08-23T07:08:48.505Z,47.53
2022-08-23T07:09:48.487Z,50.27
2022-08-23T07:10:48.486Z,48.50
2022-08-23T07:11:48.470Z,44.63
2022-08-23T07:12:48.501Z,46.08
2022-08-23T07:13:48.452Z,47.37
2022-08-23T07:14:48.446Z,48.34
2022-08-23T07:15:50.156Z,43.51
2022-08-23T07:16:48.425Z,48.02
2022-08-23T07:17:48.428Z,48.66
2022-08-23T07:18:48.464Z,47.70
2022-08-23T07:19:48.396Z,46.57
2022-08-23T07:20:48.401Z,44.31
2022-08-23T07:21:48.727Z,43.83
2022-08-23T07:22:48.362Z,47.21
2022-08-23T07:23:48.587Z,46.89
2022-08-23T07:24:48.494Z,47.05
2022-08-23T07:25:48.345Z,48.18
2022-08-23T07:26:48.350Z,49.95
2022-08-23T07:27:48.347Z,48.98
2022-08-23T07:28:48.310Z,45.76
2022-08-23T07:29:48.326Z,46.25
2022-08-23T07:30:48.350Z,47.05
2022-08-23T07:31:48.384Z,47.05
2022-08-23T07:32:48.281Z,47.86
2022-08-23T07:33:48.277Z,48.18
2022-08-23T07:34:48.261Z,48.34
2022-08-23T07:35:48.287Z,48.98
2022-08-23T07:36:48.256Z,48.34
2022-08-23T07:37:48.239Z,47.21
2022-08-23T07:38:48.237Z,46.25
2022-08-23T07:39:48.262Z,48.34
2022-08-23T07:40:48.227Z,45.92
2022-08-23T07:41:48.212Z,46.25
2022-08-23T07:42:48.205Z,46.25
2022-08-23T07:43:48.196Z,48.50
2022-08-23T07:44:48.244Z,48.02
2022-08-23T07:45:48.155Z,49.15
2022-08-23T07:46:48.194Z,47.21
2022-08-23T07:47:50.417Z,46.57
2022-08-23T07:48:55.418Z,48.50
2022-08-23T07:49:50.121Z,44.63
2022-08-23T07:50:54.513Z,48.50
2022-08-23T07:51:48.115Z,48.66
2022-08-23T07:52:48.121Z,47.53
2022-08-23T07:53:48.095Z,44.79
2022-08-23T07:54:48.585Z,46.89
2022-08-23T07:55:48.079Z,47.86
2022-08-23T07:56:48.059Z,43.83
2022-08-23T07:57:48.072Z,46.73
2022-08-23T07:58:48.059Z,46.89
2022-08-23T07:59:48.041Z,45.76
2022-08-23T08:00:48.039Z,47.86
2022-08-23T08:01:48.078Z,48.82
2022-08-23T08:02:48.080Z,48.18
2022-08-23T08:03:48.061Z,50.43
2022-08-23T08:04:48.005Z,47.05
2022-08-23T08:05:47.980Z,48.18
2022-08-23T08:06:59.956Z,46.25
2022-08-23T08:07:48.969Z,46.08
2022-08-23T08:08:47.974Z,50.76
2022-08-23T08:09:47.946Z,49.31
2022-08-23T08:10:47.961Z,48.18
2022-08-23T08:11:47.974Z,47.53
2022-08-23T08:12:47.947Z,45.44
2022-08-23T08:13:48.240Z,48.18
2022-08-23T08:14:47.919Z,50.76
2022-08-23T08:15:47.956Z,46.41
2022-08-23T08:16:47.949Z,46.41
2022-08-23T08:17:47.889Z,48.18
2022-08-23T08:18:47.872Z,48.50
2022-08-23T08:19:47.852Z,47.05
2022-08-23T08:20:47.875Z,48.50
2022-08-23T08:21:47.843Z,47.70
2022-08-23T08:22:50.820Z,48.02
2022-08-23T08:23:48.825Z,47.05
2022-08-23T08:24:47.814Z,45.92
2022-08-23T08:25:47.866Z,50.11
2022-08-23T08:26:48.513Z,45.76
2022-08-23T08:27:47.788Z,47.86
2022-08-23T08:28:47.783Z,47.70
2022-08-23T08:29:47.776Z,47.37
2022-08-23T08:30:47.762Z,48.82
2022-08-23T08:31:51.329Z,47.37
2022-08-23T08:32:48.768Z,47.86
2022-08-23T08:33:47.729Z,50.27
2022-08-23T08:34:47.724Z,49.79
2022-08-23T08:35:47.724Z,47.70
2022-08-23T08:36:48.715Z,47.05
2022-08-23T08:37:47.709Z,47.37
2022-08-23T08:38:50.281Z,47.21
2022-08-23T08:39:47.720Z,50.27
2022-08-23T08:40:47.687Z,46.57
2022-08-23T08:41:48.682Z,46.57
2022-08-23T08:42:47.667Z,47.70
2022-08-23T08:43:47.652Z,48.66
2022-08-23T08:44:47.662Z,48.02
2022-08-23T08:45:57.622Z,47.05
2022-08-23T08:46:47.689Z,48.34
2022-08-23T08:47:47.613Z,48.66
2022-08-23T08:48:47.602Z,47.37
2022-08-23T08:49:47.591Z,48.34
2022-08-23T08:50:47.584Z,49.63
2022-08-23T08:51:47.582Z,48.18
2022-08-23T08:52:47.576Z,48.98
2022-08-23T08:53:47.542Z,48.50
2022-08-23T08:54:48.314Z,47.70
2022-08-23T08:55:48.544Z,49.31
2022-08-23T08:56:47.524Z,47.53
2022-08-23T08:57:47.539Z,47.86
2022-08-23T08:58:47.515Z,49.15
2022-08-23T08:59:47.498Z,47.05
2022-08-23T09:00:47.491Z,48.50
2022-08-23T09:01:48.669Z,45.28
2022-08-23T09:02:47.520Z,45.92
2022-08-23T09:03:47.488Z,45.92
2022-08-23T09:04:47.461Z,49.31
2022-08-23T09:05:47.450Z,48.82
2022-08-23T09:06:47.440Z,49.79
2022-08-23T09:07:47.438Z,50.43
2022-08-23T09:08:47.439Z,47.21
2022-08-23T09:09:47.416Z,46.08
2022-08-23T09:10:47.428Z,46.89
2022-08-23T09:11:47.414Z,47.53
2022-08-23T09:12:47.390Z,47.37
2022-08-23T09:13:47.390Z,48.98
2022-08-23T09:14:47.368Z,48.34
2022-08-23T09:15:47.397Z,46.89
2022-08-23T09:16:47.347Z,48.02
2022-08-23T09:17:47.371Z,46.73
2022-08-23T09:18:47.334Z,48.98
2022-08-23T09:19:47.319Z,46.57
2022-08-23T09:20:47.323Z,47.05
2022-08-23T09:21:47.308Z,45.60
2022-08-23T09:22:47.309Z,46.25
2022-08-23T09:23:47.354Z,46.08
2022-08-23T09:24:47.272Z,45.92
2022-08-23T09:25:47.269Z,47.70
2022-08-23T09:26:47.288Z,47.70
2022-08-23T09:27:47.256Z,47.70
2022-08-23T09:28:47.967Z,48.82
2022-08-23T09:29:47.243Z,48.18
2022-08-23T09:30:47.264Z,46.73
2022-08-23T09:31:47.275Z,49.31
2022-08-23T09:32:47.203Z,48.66
2022-08-23T09:33:47.187Z,49.95
2022-08-23T09:34:47.198Z,49.63
2022-08-23T09:35:47.192Z,47.86
2022-08-23T09:36:47.178Z,48.34
2022-08-23T09:37:47.164Z,49.31
2022-08-23T09:38:47.162Z,48.82
2022-08-23T09:39:47.170Z,49.15
2022-08-23T09:40:47.171Z,48.18
2022-08-23T09:41:47.130Z,50.60
2022-08-23T09:42:47.113Z,49.79
2022-08-23T09:43:47.118Z,48.66
2022-08-23T09:44:47.101Z,48.66
2022-08-23T09:45:47.099Z,48.02
2022-08-23T09:46:47.100Z,48.18
2022-08-23T09:47:47.076Z,48.82
2022-08-23T09:48:47.065Z,48.98
2022-08-23T09:49:47.051Z,48.34
2022-08-23T09:50:47.065Z,47.53
2022-08-23T09:51:47.063Z,48.82
2022-08-23T09:52:48.030Z,49.63
2022-08-23T09:53:47.038Z,48.98
2022-08-23T09:54:47.691Z,49.79
2022-08-23T09:55:47.989Z,47.70
2022-08-23T09:56:47.997Z,48.18
2022-08-23T09:57:46.981Z,48.66
2022-08-23T09:58:46.986Z,49.63
2022-08-23T09:59:46.971Z,50.27
2022-08-23T10:00:46.951Z,49.47
2022-08-23T10:01:47.036Z,48.34
2022-08-23T10:02:46.932Z,49.15
2022-08-23T10:03:46.931Z,48.02
2022-08-23T10:04:47.011Z,47.86
2022-08-23T10:05:46.909Z,48.18
2022-08-23T10:06:46.922Z,49.31
2022-08-23T10:07:46.897Z,46.08
2022-08-23T10:08:46.877Z,49.95
2022-08-23T10:09:46.893Z,46.57
2022-08-23T10:10:50.761Z,48.82
2022-08-23T10:11:46.853Z,46.57
2022-08-23T10:12:46.852Z,46.08
2022-08-23T10:13:46.835Z,48.34
2022-08-23T10:14:46.837Z,47.70
2022-08-23T10:15:46.839Z,47.05
2022-08-23T10:16:46.806Z,49.79
2022-08-23T10:17:46.797Z,48.18
2022-08-23T10:18:46.797Z,50.11
2022-08-23T10:19:47.749Z,50.60
2022-08-23T10:20:47.763Z,48.50
2022-08-23T10:21:46.777Z,48.50
2022-08-23T10:22:46.759Z,47.86
2022-08-23T10:23:46.738Z,49.31
2022-08-23T10:24:46.744Z,50.27
2022-08-23T10:25:46.736Z,49.63
2022-08-23T10:26:46.726Z,50.11
2022-08-23T10:27:46.697Z,50.11
2022-08-23T10:28:46.691Z,48.98
2022-08-23T10:29:46.679Z,45.76
2022-08-23T10:30:46.725Z,48.98
2022-08-23T10:31:46.680Z,45.12
2022-08-23T10:32:46.655Z,46.89
2022-08-23T10:33:46.646Z,49.79
2022-08-23T10:34:50.359Z,50.60
2022-08-23T10:35:47.622Z,47.05
2022-08-23T10:36:46.637Z,46.41
2022-08-23T10:37:46.610Z,47.05
2022-08-23T10:38:46.609Z,46.57
2022-08-23T10:39:46.612Z,47.37
2022-08-23T10:40:46.584Z,47.70
2022-08-23T10:41:46.592Z,46.89
2022-08-23T10:42:46.569Z,47.53
2022-08-23T10:43:46.550Z,50.76
2022-08-23T10:44:46.546Z,48.98
2022-08-23T10:45:46.553Z,48.18
2022-08-23T10:46:46.627Z,46.57
2022-08-23T10:47:46.514Z,46.57
2022-08-23T10:48:46.510Z,47.37
2022-08-23T10:49:46.496Z,48.82
2022-08-23T10:50:55.706Z,46.57
2022-08-23T10:51:46.481Z,48.34
2022-08-23T10:52:46.502Z,45.76
2022-08-23T10:53:46.459Z,48.18
2022-08-23T10:54:46.461Z,48.82
2022-08-23T10:55:46.449Z,45.92
2022-08-23T10:56:48.905Z,47.21
2022-08-23T10:57:46.446Z,44.96
2022-08-23T10:58:47.565Z,48.02
2022-08-23T10:59:46.400Z,45.92
2022-08-23T11:00:46.406Z,47.37
2022-08-23T11:01:46.536Z,45.60
2022-08-23T11:02:46.423Z,45.92
2022-08-23T11:03:46.360Z,49.63
2022-08-23T11:04:46.356Z,48.34
2022-08-23T11:05:46.345Z,48.34
2022-08-23T11:06:46.343Z,49.63
2022-08-23T11:07:46.354Z,48.18
2022-08-23T11:08:48.106Z,48.50
2022-08-23T11:09:47.314Z,48.18
2022-08-23T11:10:56.388Z,48.98
2022-08-23T11:11:47.287Z,47.70
2022-08-23T11:12:46.306Z,47.53
2022-08-23T11:13:46.275Z,45.44
2022-08-23T11:14:46.267Z,48.82
2022-08-23T11:15:46.336Z,47.37
2022-08-23T11:16:46.240Z,49.95
2022-08-23T11:17:46.256Z,49.63
2022-08-23T11:18:46.222Z,47.70
2022-08-23T11:19:46.216Z,46.73
2022-08-23T11:20:46.209Z,47.21
2022-08-23T11:21:46.206Z,46.57
2022-08-23T11:22:46.210Z,45.60
2022-08-23T11:23:46.200Z,45.28
2022-08-23T11:24:46.170Z,48.18
2022-08-23T11:25:47.251Z,47.53
2022-08-23T11:26:46.175Z,48.02
2022-08-23T11:27:46.138Z,48.82
2022-08-23T11:28:46.126Z,48.50
2022-08-23T11:29:46.140Z,43.99
2022-08-23T11:30:46.159Z,45.44
2022-08-23T11:31:46.262Z,48.50
2022-08-23T11:32:46.107Z,48.34
2022-08-23T11:33:46.081Z,49.15
2022-08-23T11:34:46.104Z,47.21
2022-08-23T11:35:46.060Z,46.89
2022-08-23T11:36:46.064Z,49.63
2022-08-23T11:37:46.048Z,49.47
2022-08-23T11:38:46.031Z,50.11
2022-08-23T11:39:46.087Z,48.66
2022-08-23T11:40:46.029Z,48.98
2022-08-23T11:41:46.000Z,48.34
2022-08-23T11:42:46.000Z,49.31
2022-08-23T11:43:46.000Z,50.92
2022-08-23T11:44:45.983Z,46.73
2022-08-23T11:45:46.033Z,45.76
2022-08-23T11:46:45.975Z,47.70
2022-08-23T11:47:45.945Z,48.98
2022-08-23T11:48:46.627Z,47.37
2022-08-23T11:49:45.940Z,44.96
2022-08-23T11:50:45.925Z,47.21
2022-08-23T11:51:45.937Z,46.25
2022-08-23T11:52:45.898Z,48.18
2022-08-23T11:53:45.891Z,45.76
2022-08-23T11:54:45.879Z,44.47
2022-08-23T11:55:45.859Z,45.44
2022-08-23T11:56:46.483Z,48.66
2022-08-23T11:57:46.861Z,48.66
2022-08-23T11:58:45.839Z,49.31
2022-08-23T11:59:45.834Z,47.21
2022-08-23T12:00:45.826Z,47.05
2022-08-23T12:01:45.805Z,48.18
2022-08-23T12:02:45.932Z,48.18
2022-08-23T12:03:46.080Z,48.18
2022-08-23T12:04:47.350Z,49.63
2022-08-23T12:05:45.779Z,49.31
2022-08-23T12:06:50.593Z,50.76
2022-08-23T12:07:46.749Z,49.47
2022-08-23T12:08:45.774Z,50.76
2022-08-23T12:09:45.748Z,48.34
2022-08-23T12:10:45.719Z,49.79
2022-08-23T12:11:45.705Z,47.37
2022-08-23T12:12:47.447Z,50.11
2022-08-23T12:13:46.712Z,49.15
2022-08-23T12:14:45.683Z,49.95
2022-08-23T12:15:45.700Z,50.43
2022-08-23T12:16:49.994Z,47.05
2022-08-23T12:17:45.667Z,48.50
2022-08-23T12:18:47.734Z,48.50
2022-08-23T12:19:45.638Z,48.18
2022-08-23T12:20:45.798Z,45.92
2022-08-23T12:21:45.658Z,46.08
2022-08-23T12:22:45.615Z,48.18
2022-08-23T12:23:47.971Z,48.50
2022-08-23T12:24:46.846Z,49.15
2022-08-23T12:25:45.573Z,48.66
2022-08-23T12:26:45.571Z,49.79
2022-08-23T12:27:45.578Z,49.79
2022-08-23T12:28:45.550Z,48.34
2022-08-23T12:29:45.610Z,50.76
2022-08-23T12:30:45.562Z,49.47
2022-08-23T12:31:45.539Z,47.53
2022-08-23T12:32:45.519Z,47.70
2022-08-23T12:33:45.907Z,48.18
2022-08-23T12:34:45.495Z,48.66
2022-08-23T12:35:45.489Z,49.79
2022-08-23T12:36:45.482Z,48.34
2022-08-23T12:37:45.461Z,49.63
2022-08-23T12:38:45.553Z,46.73
2022-08-23T12:39:45.476Z,49.79
2022-08-23T12:40:45.430Z,52.53
2022-08-23T12:41:45.411Z,48.18
2022-08-23T12:42:45.406Z,50.27
2022-08-23T12:43:45.407Z,51.08
2022-08-23T12:44:45.402Z,48.34
2022-08-23T12:45:45.402Z,48.02
2022-08-23T12:46:45.456Z,48.50
2022-08-23T12:47:45.382Z,50.43
2022-08-23T12:48:45.363Z,49.79
2022-08-23T12:49:45.336Z,48.82
2022-08-23T12:50:45.356Z,48.50
2022-08-23T12:51:45.328Z,47.37
2022-08-23T12:52:45.324Z,50.92
2022-08-23T12:53:45.793Z,49.95